Terminal Aerodrome Forecast
Issued by NWS Grand Forks, ND

Home | Current Version | Previous Version | Text Only | Print | Product List | Glossary Off
Versions: 1 2 3 4 5 6 7 8 9 10 11 12 13 14 15 16 17

352
FTUS43 KFGF 251120
TAFGFK
TAF
KGFK 251120Z 2512/2612 20011KT P6SM SCT200
     FM251300 22011KT P6SM BKN060
     FM251400 24014G21KT P6SM VCSH BKN015
     FM251900 28021G27KT P6SM VCSH OVC025
     FM252100 31020G30KT P6SM OVC035
     FM260300 30014KT P6SM SCT090=

USA.gov is the U.S. government's official web portal to all federal, state and local government web resources and services.